createdAt,value
2019-04-07T00:02:01.780Z,38.98
2019-04-07T00:04:30.957Z,40.28
2019-04-07T00:07:01.315Z,37.90
2019-04-07T00:09:31.307Z,43.02
2019-04-07T00:12:00.917Z,41.60
2019-04-07T00:14:30.415Z,39.18
2019-04-07T00:17:00.732Z,47.05
2019-04-07T00:19:30.668Z,40.28
2019-04-07T00:22:00.909Z,38.65
2019-04-07T00:24:30.397Z,37.80
2019-04-07T00:27:00.198Z,38.75
2019-04-07T00:29:29.726Z,42.43
2019-04-07T00:31:59.317Z,35.63
2019-04-07T00:34:29.139Z,41.55
2019-04-07T00:36:58.820Z,34.75
2019-04-07T00:39:29.258Z,40.15
2019-04-07T00:41:59.216Z,50.50
2019-04-07T00:44:29.120Z,39.78
2019-04-07T00:46:59.786Z,35.45
2019-04-07T00:49:29.681Z,34.98
2019-04-07T00:52:00.278Z,35.58
2019-04-07T00:54:30.561Z,42.40
2019-04-07T00:57:00.961Z,32.48
2019-04-07T00:59:30.819Z,35.03
2019-04-07T01:02:01.463Z,39.03
2019-04-07T01:04:31.822Z,36.48
2019-04-07T01:07:02.687Z,37.25
2019-04-07T01:09:32.637Z,38.53
2019-04-07T01:12:02.024Z,35.60
2019-04-07T01:14:31.508Z,34.08
2019-04-07T01:17:01.343Z,35.17
2019-04-07T01:19:31.351Z,27.52
2019-04-07T01:22:01.189Z,38.28
2019-04-07T01:24:30.799Z,37.83
2019-04-07T01:27:03.912Z,30.25
2019-04-07T01:29:33.373Z,28.90
2019-04-07T01:32:03.767Z,31.55
2019-04-07T01:34:34.006Z,33.48
2019-04-07T01:37:03.620Z,31.70
2019-04-07T01:39:33.726Z,33.15
2019-04-07T01:42:05.797Z,31.90
2019-04-07T01:44:47.303Z,26.48
2019-04-07T01:47:24.498Z,35.28
2019-04-07T01:50:14.350Z,29.40
2019-04-07T01:52:45.377Z,33.05
2019-04-07T01:55:33.541Z,28.95
2019-04-07T01:58:04.783Z,26.37
2019-04-07T02:00:36.058Z,24.63
2019-04-07T02:03:07.520Z,26.75
2019-04-07T02:05:59.829Z,28.05
2019-04-07T02:08:32.837Z,31.20
2019-04-07T02:11:22.074Z,26.97
2019-04-07T02:13:53.458Z,28.35
2019-04-07T02:16:31.227Z,26.45
2019-04-07T15:10:03.547Z,6.47
2019-04-07T15:12:34.957Z,7.75
2019-04-07T15:15:09.923Z,6.90
2019-04-07T15:17:37.438Z,7.33
2019-04-07T15:20:13.656Z,5.72
2019-04-07T15:22:44.799Z,6.55
2019-04-07T15:25:12.760Z,5.80
2019-04-07T15:27:41.738Z,5.60
2019-04-07T15:30:15.309Z,7.30
2019-04-07T15:32:42.773Z,5.87
2019-04-07T15:35:13.230Z,7.10
2019-04-07T15:37:42.190Z,6.95
2019-04-07T15:40:11.923Z,6.37
2019-04-07T15:42:45.926Z,8.28
2019-04-07T15:45:12.493Z,7.00
2019-04-07T15:47:42.463Z,7.33
2019-04-07T15:50:12.063Z,8.45
2019-04-07T15:52:43.736Z,8.13
2019-04-07T15:55:11.850Z,10.28
2019-04-07T15:57:42.722Z,7.00
2019-04-07T16:00:12.476Z,7.92
2019-04-07T16:02:43.136Z,9.00
2019-04-07T16:05:12.416Z,8.05
2019-04-07T16:07:41.826Z,7.20
2019-04-07T16:10:10.991Z,9.13
2019-04-07T16:12:47.346Z,8.73
2019-04-07T16:15:11.179Z,7.75
2019-04-07T16:17:40.397Z,7.45
2019-04-07T16:20:21.845Z,8.98
2019-04-07T16:22:44.187Z,9.08
2019-04-07T16:25:13.230Z,12.43
2019-04-07T16:27:42.413Z,10.32
2019-04-07T16:30:13.779Z,9.43
2019-04-07T16:32:42.532Z,8.88
2019-04-07T16:35:14.933Z,9.30
2019-04-07T16:37:42.582Z,10.60
2019-04-07T16:40:13.090Z,8.60
2019-04-07T16:42:45.634Z,11.28
2019-04-07T16:45:16.432Z,9.15
2019-04-07T16:47:43.399Z,9.05
2019-04-07T16:50:13.291Z,9.25
2019-04-07T16:52:42.166Z,9.95
2019-04-07T16:55:33.585Z,9.48
2019-04-07T16:58:03.258Z,7.90
2019-04-07T17:00:32.505Z,9.83
2019-04-07T17:03:01.409Z,9.98
2019-04-07T17:05:30.561Z,12.13
2019-04-07T17:08:01.720Z,8.93
2019-04-07T17:10:34.087Z,8.40
2019-04-07T17:13:13.815Z,10.78
2019-04-07T17:15:37.354Z,9.28
2019-04-07T17:18:08.560Z,11.95
2019-04-07T17:20:38.245Z,7.83
2019-04-07T17:23:07.520Z,9.53
2019-04-07T17:25:37.535Z,11.83
2019-04-07T17:28:06.602Z,11.12
2019-04-07T17:30:38.401Z,9.35
2019-04-07T17:33:08.157Z,9.00
2019-04-07T17:35:37.249Z,9.55
2019-04-07T17:38:08.545Z,7.25
2019-04-07T17:40:39.263Z,9.85
2019-04-07T17:43:10.703Z,8.03
2019-04-07T17:45:43.107Z,8.73
2019-04-07T17:48:17.087Z,8.53
2019-04-07T17:50:48.692Z,7.92
2019-04-07T17:53:19.520Z,7.58
2019-04-07T17:55:50.602Z,6.22
2019-04-07T17:58:22.168Z,8.20
2019-04-07T18:01:08.338Z,7.35
2019-04-07T18:03:55.136Z,7.15
2019-04-07T18:06:33.469Z,7.92
2019-04-07T18:09:10.385Z,8.38
2019-04-07T18:11:45.840Z,7.20
2019-04-07T18:14:33.110Z,7.30
2019-04-07T18:17:06.677Z,8.25
2019-04-07T18:19:49.021Z,6.35
2019-04-07T18:22:35.916Z,7.05
2019-04-07T18:25:12.071Z,6.90
2019-04-07T18:27:48.175Z,8.13
2019-04-07T18:30:30.467Z,5.58
2019-04-07T18:32:58.654Z,6.75
2019-04-07T18:35:40.974Z,8.78
2019-04-07T18:38:26.409Z,8.00
2019-04-07T18:41:11.094Z,6.12
2019-04-07T18:43:50.598Z,8.90
2019-04-07T18:46:19.442Z,7.67
2019-04-07T18:49:06.067Z,6.42
2019-04-07T18:51:53.517Z,7.92
2019-04-07T18:54:27.040Z,9.75
2019-04-07T18:57:03.962Z,7.80
2019-04-07T18:59:41.077Z,8.20
2019-04-07T19:02:20.566Z,7.72
2019-04-07T19:04:55.627Z,7.25
2019-04-07T19:07:35.770Z,7.40
2019-04-07T19:10:25.621Z,7.28
2019-04-07T19:13:05.070Z,6.53
2019-04-07T19:15:28.984Z,7.78
2019-04-07T19:18:02.985Z,5.95
2019-04-07T19:20:34.134Z,6.50
2019-04-07T19:23:05.702Z,6.00
2019-04-07T19:25:42.621Z,6.85
2019-04-07T19:28:26.308Z,8.15
2019-04-07T19:31:03.085Z,6.70
2019-04-07T19:33:56.641Z,6.33
2019-04-07T19:36:36.857Z,6.12
2019-04-07T19:39:11.165Z,7.10
2019-04-07T19:41:48.876Z,8.98
2019-04-07T19:44:33.940Z,6.47
2019-04-07T19:46:58.343Z,8.80
2019-04-07T19:49:29.920Z,7.65
2019-04-07T19:52:16.818Z,8.78
2019-04-07T19:54:59.853Z,6.17
2019-04-07T19:57:46.980Z,9.68
2019-04-07T20:00:23.426Z,7.47
2019-04-07T20:03:07.641Z,9.20
2019-04-07T20:05:48.774Z,6.50
2019-04-07T20:08:37.430Z,7.58
2019-04-07T20:11:28.488Z,9.30
2019-04-07T20:14:14.471Z,8.05
2019-04-07T20:16:54.331Z,7.60
2019-04-07T20:19:27.221Z,8.65
2019-04-07T20:22:13.561Z,6.70
2019-04-07T20:24:49.153Z,9.05
2019-04-07T20:27:22.691Z,7.37
2019-04-07T20:29:51.894Z,8.33
2019-04-07T20:32:26.234Z,8.55
2019-04-07T20:34:59.895Z,8.25
2019-04-07T20:37:46.829Z,8.58
2019-04-07T20:40:37.509Z,8.30
2019-04-07T20:43:12.335Z,6.85
2019-04-07T20:46:00.309Z,7.00
2019-04-07T20:48:33.476Z,7.42
2019-04-07T20:51:05.549Z,7.97
2019-04-07T20:53:38.538Z,8.18
2019-04-07T20:56:11.500Z,6.70
2019-04-07T20:58:46.396Z,6.92
2019-04-07T21:01:17.511Z,6.70
2019-04-07T21:03:57.858Z,8.05
2019-04-07T21:06:44.191Z,7.67
2019-04-07T21:09:17.883Z,7.53
2019-04-07T21:11:51.368Z,8.28
2019-04-07T21:14:22.791Z,5.97
2019-04-07T21:16:59.404Z,5.97
2019-04-07T21:19:29.168Z,6.00
2019-04-07T21:22:00.105Z,6.55
2019-04-07T21:24:49.772Z,9.10
2019-04-07T21:27:37.179Z,7.45
2019-04-07T21:30:27.747Z,9.38
2019-04-07T21:33:04.517Z,8.30
2019-04-07T21:35:51.219Z,7.80
2019-04-07T21:38:39.111Z,7.40
2019-04-07T21:41:12.242Z,8.20
2019-04-07T21:43:42.475Z,6.20
2019-04-07T21:46:30.380Z,6.35
2019-04-07T21:49:07.674Z,6.90
2019-04-07T21:51:38.323Z,7.67
2019-04-07T21:54:11.848Z,6.47
2019-04-07T21:57:00.223Z,8.20
2019-04-07T21:59:32.520Z,8.23
2019-04-07T22:02:11.820Z,9.68
2019-04-07T22:04:54.286Z,6.05
2019-04-07T22:07:39.731Z,8.10
2019-04-07T22:10:13.672Z,8.15
2019-04-07T22:12:42.980Z,9.70
2019-04-07T22:15:14.074Z,11.97
2019-04-07T22:17:43.768Z,9.68
2019-04-07T22:20:17.739Z,9.18
2019-04-07T22:22:44.268Z,8.18
2019-04-07T22:25:15.425Z,7.28
2019-04-07T22:27:44.811Z,8.43
2019-04-07T22:30:14.455Z,9.75
2019-04-07T22:32:43.521Z,6.78
2019-04-07T22:35:12.938Z,10.28
2019-04-07T22:37:42.772Z,6.58
2019-04-07T22:40:19.453Z,8.88
2019-04-07T22:42:48.935Z,9.50
2019-04-07T22:45:19.041Z,8.10
2019-04-07T22:47:51.507Z,7.33
2019-04-07T22:50:19.393Z,7.03
2019-04-07T22:52:50.558Z,7.17
2019-04-07T22:55:19.022Z,7.40
2019-04-07T22:57:48.387Z,6.33
2019-04-07T23:00:19.863Z,7.60
2019-04-07T23:02:49.055Z,6.62
2019-04-07T23:05:19.050Z,9.58
2019-04-07T23:07:48.382Z,7.90
2019-04-07T23:10:18.194Z,9.55
2019-04-07T23:12:47.921Z,7.65
2019-04-07T23:15:17.304Z,9.60
2019-04-07T23:17:47.243Z,11.83
2019-04-07T23:20:17.086Z,6.78
2019-04-07T23:22:46.659Z,9.63
2019-04-07T23:25:15.940Z,11.22
2019-04-07T23:27:45.726Z,8.10
2019-04-07T23:30:17.340Z,8.83
2019-04-07T23:32:46.792Z,8.93
2019-04-07T23:35:16.597Z,9.73
2019-04-07T23:37:46.681Z,8.53
2019-04-07T23:40:16.288Z,8.78
2019-04-07T23:42:45.540Z,9.50
2019-04-07T23:45:14.860Z,9.70
2019-04-07T23:47:44.835Z,8.40
2019-04-07T23:50:14.637Z,9.78
2019-04-07T23:52:43.768Z,7.83
2019-04-07T23:55:13.080Z,10.10
2019-04-07T23:57:42.332Z,9.03
